Weather at Addis Ababa Bole International Airport

Public forecast

Using degrees Celsius for public forecast. Weather courtesy of forecast.io.

Current aviation weather report (METAR) for Addis Ababa Bole International Airport

Retrieved 2021/01/23 00:00 UTC (20 minutes ago):

HAAB 230000Z 31002KT C A V O K 11/M02 Q1025

Aviation forecast (TAF) for Addis Ababa Bole International Airport

Forecast is more than 6 hours old.

Retrieved 2021/01/22 12:24 UTC (12 hours ago):

TAF TAF HAAB 220930Z 2212/2318 09010KT C A V O K